sensor_id;sensor_type;location;lat;lon;timestamp;P1;durP1;ratioP1;P2;durP2;ratioP2
62110;SDS011;48102;47.526;19.072;2024-03-06T04:41:41;15.88;;;10.77;;
62110;SDS011;48102;47.526;19.072;2024-03-06T04:44:47;20.95;;;10.75;;
62110;SDS011;48102;47.526;19.072;2024-03-06T04:47:50;22.25;;;13.27;;
62110;SDS011;48102;47.526;19.072;2024-03-06T04:50:53;35.67;;;20.33;;
62110;SDS011;48102;47.526;19.072;2024-03-06T04:53:56;32.47;;;20.80;;
62110;SDS011;48102;47.526;19.072;2024-03-06T05:00:02;38.90;;;33.17;;
62110;SDS011;48102;47.526;19.072;2024-03-06T05:03:11;29.15;;;22.77;;
62110;SDS011;48102;47.526;19.072;2024-03-06T05:06:31;40.63;;;33.30;;
62110;SDS011;48102;47.526;19.072;2024-03-06T05:09:51;43.90;;;33.83;;
62110;SDS011;48102;47.526;19.072;2024-03-06T05:13:11;53.08;;;39.03;;
62110;SDS011;48102;47.526;19.072;2024-03-06T05:16:32;45.03;;;36.08;;
62110;SDS011;48102;47.526;19.072;2024-03-06T05:19:53;59.20;;;51.50;;
62110;SDS011;48102;47.526;19.072;2024-03-06T05:23:14;62.13;;;49.70;;
62110;SDS011;48102;47.526;19.072;2024-03-06T05:26:37;53.87;;;47.97;;
62110;SDS011;48102;47.526;19.072;2024-03-06T05:29:57;95.15;;;78.03;;
62110;SDS011;48102;47.526;19.072;2024-03-06T05:33:17;120.72;;;93.53;;
62110;SDS011;48102;47.526;19.072;2024-03-06T05:36:38;131.70;;;109.22;;
62110;SDS011;48102;47.526;19.072;2024-03-06T05:39:58;90.18;;;76.85;;
62110;SDS011;48102;47.526;19.072;2024-03-06T05:43:19;43.15;;;32.85;;
62110;SDS011;48102;47.526;19.072;2024-03-06T05:46:39;15.93;;;12.18;;
62110;SDS011;48102;47.526;19.072;2024-03-06T05:50:00;27.35;;;13.73;;
62110;SDS011;48102;47.526;19.072;2024-03-06T05:53:24;22.45;;;13.75;;
62110;SDS011;48102;47.526;19.072;2024-03-06T05:56:44;18.92;;;11.55;;
62110;SDS011;48102;47.526;19.072;2024-03-06T06:00:04;31.95;;;12.48;;
62110;SDS011;48102;47.526;19.072;2024-03-06T06:03:14;26.17;;;12.00;;
62110;SDS011;48102;47.526;19.072;2024-03-06T06:06:17;23.73;;;12.77;;
62110;SDS011;48102;47.526;19.072;2024-03-06T06:09:22;22.80;;;12.00;;
62110;SDS011;48102;47.526;19.072;2024-03-06T06:12:24;21.23;;;12.57;;
62110;SDS011;48102;47.526;19.072;2024-03-06T06:18:30;23.65;;;14.00;;
62110;SDS011;48102;47.526;19.072;2024-03-06T06:21:34;23.05;;;13.13;;
62110;SDS011;48102;47.526;19.072;2024-03-06T06:24:38;22.52;;;12.13;;
62110;SDS011;48102;47.526;19.072;2024-03-06T06:30:44;22.27;;;12.17;;
62110;SDS011;48102;47.526;19.072;2024-03-06T06:33:47;27.70;;;13.07;;
62110;SDS011;48102;47.526;19.072;2024-03-06T06:36:50;22.62;;;15.13;;
62110;SDS011;48102;47.526;19.072;2024-03-06T06:39:55;19.92;;;11.93;;
62110;SDS011;48102;47.526;19.072;2024-03-06T06:42:58;25.90;;;12.98;;
62110;SDS011;48102;47.526;19.072;2024-03-06T06:46:01;20.23;;;13.73;;
62110;SDS011;48102;47.526;19.072;2024-03-06T06:49:07;32.53;;;13.77;;
62110;SDS011;48102;47.526;19.072;2024-03-06T06:52:11;23.45;;;13.90;;
62110;SDS011;48102;47.526;19.072;2024-03-06T06:55:14;22.83;;;13.32;;
62110;SDS011;48102;47.526;19.072;2024-03-06T06:58:17;22.02;;;13.55;;
62110;SDS011;48102;47.526;19.072;2024-03-06T07:01:20;28.08;;;13.98;;
62110;SDS011;48102;47.526;19.072;2024-03-06T07:04:24;18.20;;;11.77;;
62110;SDS011;48102;47.526;19.072;2024-03-06T07:07:27;18.77;;;12.37;;
62110;SDS011;48102;47.526;19.072;2024-03-06T07:10:30;19.85;;;13.02;;
62110;SDS011;48102;47.526;19.072;2024-03-06T07:13:33;24.50;;;12.45;;
62110;SDS011;48102;47.526;19.072;2024-03-06T07:16:41;17.15;;;11.88;;
62110;SDS011;48102;47.526;19.072;2024-03-06T07:19:47;21.27;;;12.25;;
62110;SDS011;48102;47.526;19.072;2024-03-06T07:25:53;18.87;;;10.90;;
62110;SDS011;48102;47.526;19.072;2024-03-06T07:32:00;19.10;;;10.38;;
62110;SDS011;48102;47.526;19.072;2024-03-06T07:35:03;26.87;;;11.95;;
62110;SDS011;48102;47.526;19.072;2024-03-06T07:38:07;32.13;;;13.50;;
62110;SDS011;48102;47.526;19.072;2024-03-06T07:41:09;23.58;;;11.93;;
62110;SDS011;48102;47.526;19.072;2024-03-06T07:44:13;22.80;;;12.25;;
62110;SDS011;48102;47.526;19.072;2024-03-06T07:50:19;21.80;;;12.00;;
62110;SDS011;48102;47.526;19.072;2024-03-06T07:53:22;34.40;;;11.52;;
62110;SDS011;48102;47.526;19.072;2024-03-06T07:56:25;18.77;;;11.30;;
62110;SDS011;48102;47.526;19.072;2024-03-06T07:59:29;15.02;;;8.98;;
62110;SDS011;48102;47.526;19.072;2024-03-06T08:02:32;15.73;;;8.90;;
62110;SDS011;48102;47.526;19.072;2024-03-06T08:05:35;17.77;;;10.48;;
62110;SDS011;48102;47.526;19.072;2024-03-06T08:08:41;15.45;;;9.32;;
62110;SDS011;48102;47.526;19.072;2024-03-06T08:11:47;16.30;;;10.45;;
62110;SDS011;48102;47.526;19.072;2024-03-06T08:14:49;15.88;;;10.05;;
62110;SDS011;48102;47.526;19.072;2024-03-06T08:17:52;12.07;;;8.60;;
62110;SDS011;48102;47.526;19.072;2024-03-06T08:23:58;12.63;;;9.05;;
62110;SDS011;48102;47.526;19.072;2024-03-06T08:27:01;12.75;;;9.15;;
62110;SDS011;48102;47.526;19.072;2024-03-06T08:30:06;14.20;;;8.80;;
62110;SDS011;48102;47.526;19.072;2024-03-06T08:33:13;16.87;;;8.38;;
62110;SDS011;48102;47.526;19.072;2024-03-06T08:36:16;19.55;;;8.05;;
62110;SDS011;48102;47.526;19.072;2024-03-06T08:39:19;17.15;;;8.50;;
62110;SDS011;48102;47.526;19.072;2024-03-06T08:45:26;19.05;;;8.73;;
62110;SDS011;48102;47.526;19.072;2024-03-06T08:51:32;8.38;;;5.28;;
62110;SDS011;48102;47.526;19.072;2024-03-06T08:54:35;10.35;;;5.82;;
62110;SDS011;48102;47.526;19.072;2024-03-06T08:57:38;7.57;;;5.50;;
62110;SDS011;48102;47.526;19.072;2024-03-06T09:00:42;8.60;;;5.32;;
62110;SDS011;48102;47.526;19.072;2024-03-06T09:03:44;9.63;;;6.28;;
62110;SDS011;48102;47.526;19.072;2024-03-06T09:06:47;10.25;;;5.97;;
62110;SDS011;48102;47.526;19.072;2024-03-06T09:09:51;10.93;;;6.60;;
62110;SDS011;48102;47.526;19.072;2024-03-06T09:12:56;8.68;;;5.87;;
62110;SDS011;48102;47.526;19.072;2024-03-06T09:15:59;15.00;;;5.32;;
62110;SDS011;48102;47.526;19.072;2024-03-06T09:19:02;9.88;;;5.35;;
62110;SDS011;48102;47.526;19.072;2024-03-06T09:22:05;10.27;;;5.97;;
62110;SDS011;48102;47.526;19.072;2024-03-06T09:25:09;9.25;;;6.15;;
62110;SDS011;48102;47.526;19.072;2024-03-06T09:28:12;7.28;;;4.82;;
62110;SDS011;48102;47.526;19.072;2024-03-06T09:34:18;9.57;;;5.47;;
62110;SDS011;48102;47.526;19.072;2024-03-06T09:37:21;8.57;;;6.25;;
62110;SDS011;48102;47.526;19.072;2024-03-06T09:40:24;8.77;;;5.72;;
62110;SDS011;48102;47.526;19.072;2024-03-06T09:43:27;7.62;;;5.05;;
62110;SDS011;48102;47.526;19.072;2024-03-06T09:46:33;7.60;;;4.37;;
62110;SDS011;48102;47.526;19.072;2024-03-06T09:49:39;6.43;;;4.45;;
62110;SDS011;48102;47.526;19.072;2024-03-06T09:52:43;5.90;;;4.40;;
62110;SDS011;48102;47.526;19.072;2024-03-06T09:55:49;7.57;;;5.15;;
62110;SDS011;48102;47.526;19.072;2024-03-06T09:58:53;11.70;;;5.80;;
62110;SDS011;48102;47.526;19.072;2024-03-06T10:01:57;10.50;;;5.40;;
62110;SDS011;48102;47.526;19.072;2024-03-06T10:05:00;6.57;;;4.87;;
62110;SDS011;48102;47.526;19.072;2024-03-06T10:08:04;7.78;;;5.05;;
62110;SDS011;48102;47.526;19.072;2024-03-06T10:11:07;11.52;;;5.28;;
62110;SDS011;48102;47.526;19.072;2024-03-06T10:14:11;6.82;;;5.20;;
62110;SDS011;48102;47.526;19.072;2024-03-06T10:17:21;9.65;;;5.30;;
62110;SDS011;48102;47.526;19.072;2024-03-06T10:20:30;8.68;;;5.70;;
62110;SDS011;48102;47.526;19.072;2024-03-06T10:23:37;10.45;;;5.37;;
62110;SDS011;48102;47.526;19.072;2024-03-06T10:26:40;6.97;;;5.20;;
62110;SDS011;48102;47.526;19.072;2024-03-06T10:29:44;13.60;;;5.85;;
62110;SDS011;48102;47.526;19.072;2024-03-06T10:32:47;10.45;;;5.18;;
62110;SDS011;48102;47.526;19.072;2024-03-06T10:35:50;6.50;;;5.07;;
62110;SDS011;48102;47.526;19.072;2024-03-06T10:38:53;8.18;;;5.30;;
62110;SDS011;48102;47.526;19.072;2024-03-06T10:42:01;9.48;;;5.43;;
62110;SDS011;48102;47.526;19.072;2024-03-06T10:45:05;9.65;;;5.80;;
62110;SDS011;48102;47.526;19.072;2024-03-06T10:48:09;8.98;;;5.93;;
62110;SDS011;48102;47.526;19.072;2024-03-06T10:51:15;12.05;;;5.35;;
62110;SDS011;48102;47.526;19.072;2024-03-06T10:54:21;7.47;;;5.65;;
62110;SDS011;48102;47.526;19.072;2024-03-06T10:57:25;8.65;;;5.78;;
62110;SDS011;48102;47.526;19.072;2024-03-06T11:00:29;8.80;;;5.60;;
62110;SDS011;48102;47.526;19.072;2024-03-06T11:03:32;7.40;;;5.22;;
62110;SDS011;48102;47.526;19.072;2024-03-06T11:06:38;7.85;;;6.00;;
62110;SDS011;48102;47.526;19.072;2024-03-06T11:09:41;8.45;;;5.30;;
62110;SDS011;48102;47.526;19.072;2024-03-06T11:12:45;7.12;;;5.12;;
62110;SDS011;48102;47.526;19.072;2024-03-06T11:15:52;6.82;;;5.78;;
62110;SDS011;48102;47.526;19.072;2024-03-06T11:19:08;9.10;;;6.28;;
62110;SDS011;48102;47.526;19.072;2024-03-06T11:22:11;7.10;;;5.20;;
62110;SDS011;48102;47.526;19.072;2024-03-06T11:28:36;7.68;;;5.10;;
62110;SDS011;48102;47.526;19.072;2024-03-06T11:31:55;8.45;;;5.40;;
62110;SDS011;48102;47.526;19.072;2024-03-06T11:35:05;15.55;;;6.22;;
62110;SDS011;48102;47.526;19.072;2024-03-06T11:38:11;8.57;;;6.05;;
62110;SDS011;48102;47.526;19.072;2024-03-06T11:41:14;9.75;;;6.28;;
62110;SDS011;48102;47.526;19.072;2024-03-06T11:44:18;8.50;;;5.60;;
62110;SDS011;48102;47.526;19.072;2024-03-06T11:47:26;9.63;;;6.18;;
62110;SDS011;48102;47.526;19.072;2024-03-06T11:50:29;13.07;;;6.00;;
62110;SDS011;48102;47.526;19.072;2024-03-06T11:53:34;11.52;;;6.80;;
62110;SDS011;48102;47.526;19.072;2024-03-06T11:56:43;13.57;;;6.62;;
62110;SDS011;48102;47.526;19.072;2024-03-06T11:59:49;10.63;;;6.47;;
62110;SDS011;48102;47.526;19.072;2024-03-06T12:02:54;10.05;;;6.18;;
62110;SDS011;48102;47.526;19.072;2024-03-06T12:05:58;9.80;;;5.40;;
62110;SDS011;48102;47.526;19.072;2024-03-06T12:09:01;9.63;;;5.93;;
62110;SDS011;48102;47.526;19.072;2024-03-06T12:12:05;9.90;;;6.50;;
62110;SDS011;48102;47.526;19.072;2024-03-06T12:15:09;8.63;;;6.20;;
62110;SDS011;48102;47.526;19.072;2024-03-06T12:18:13;8.77;;;6.20;;
62110;SDS011;48102;47.526;19.072;2024-03-06T12:21:22;9.43;;;6.65;;
62110;SDS011;48102;47.526;19.072;2024-03-06T12:24:26;13.93;;;5.70;;
62110;SDS011;48102;47.526;19.072;2024-03-06T12:30:38;10.07;;;5.87;;
62110;SDS011;48102;47.526;19.072;2024-03-06T12:33:44;9.93;;;5.37;;
62110;SDS011;48102;47.526;19.072;2024-03-06T12:36:47;8.32;;;5.37;;
62110;SDS011;48102;47.526;19.072;2024-03-06T12:39:50;9.75;;;5.45;;
62110;SDS011;48102;47.526;19.072;2024-03-06T12:42:53;8.52;;;4.97;;
62110;SDS011;48102;47.526;19.072;2024-03-06T12:49:03;6.22;;;4.78;;
62110;SDS011;48102;47.526;19.072;2024-03-06T12:52:05;8.75;;;5.25;;
62110;SDS011;48102;47.526;19.072;2024-03-06T12:55:09;8.45;;;5.15;;
62110;SDS011;48102;47.526;19.072;2024-03-06T12:58:15;9.77;;;5.12;;
62110;SDS011;48102;47.526;19.072;2024-03-06T13:01:18;8.18;;;4.93;;
62110;SDS011;48102;47.526;19.072;2024-03-06T13:04:20;6.35;;;4.55;;
62110;SDS011;48102;47.526;19.072;2024-03-06T13:10:29;6.50;;;4.85;;
62110;SDS011;48102;47.526;19.072;2024-03-06T13:13:32;5.50;;;4.25;;
62110;SDS011;48102;47.526;19.072;2024-03-06T13:16:37;6.75;;;4.32;;
62110;SDS011;48102;47.526;19.072;2024-03-06T13:19:40;7.35;;;4.03;;
62110;SDS011;48102;47.526;19.072;2024-03-06T13:22:42;7.87;;;5.20;;
62110;SDS011;48102;47.526;19.072;2024-03-06T13:25:46;9.07;;;6.25;;
62110;SDS011;48102;47.526;19.072;2024-03-06T13:28:49;17.37;;;7.28;;
62110;SDS011;48102;47.526;19.072;2024-03-06T13:31:52;12.68;;;7.90;;
62110;SDS011;48102;47.526;19.072;2024-03-06T13:34:55;11.30;;;6.12;;
62110;SDS011;48102;47.526;19.072;2024-03-06T13:38:01;10.38;;;6.22;;
62110;SDS011;48102;47.526;19.072;2024-03-06T13:41:05;11.35;;;6.60;;
62110;SDS011;48102;47.526;19.072;2024-03-06T13:47:14;6.87;;;5.65;;
62110;SDS011;48102;47.526;19.072;2024-03-06T13:50:19;8.82;;;5.78;;
62110;SDS011;48102;47.526;19.072;2024-03-06T13:53:24;10.27;;;6.12;;
62110;SDS011;48102;47.526;19.072;2024-03-06T13:56:27;8.32;;;6.10;;
62110;SDS011;48102;47.526;19.072;2024-03-06T13:59:30;11.05;;;6.87;;
62110;SDS011;48102;47.526;19.072;2024-03-06T14:02:34;9.65;;;5.95;;
62110;SDS011;48102;47.526;19.072;2024-03-06T14:08:40;10.35;;;4.80;;
62110;SDS011;48102;47.526;19.072;2024-03-06T14:11:44;6.05;;;4.25;;
62110;SDS011;48102;47.526;19.072;2024-03-06T14:14:47;5.43;;;3.10;;
62110;SDS011;48102;47.526;19.072;2024-03-06T14:17:50;7.85;;;3.70;;
62110;SDS011;48102;47.526;19.072;2024-03-06T14:24:00;6.68;;;3.92;;
62110;SDS011;48102;47.526;19.072;2024-03-06T14:27:06;5.35;;;3.60;;
62110;SDS011;48102;47.526;19.072;2024-03-06T14:30:09;8.20;;;5.47;;
62110;SDS011;48102;47.526;19.072;2024-03-06T14:33:16;8.30;;;6.20;;
62110;SDS011;48102;47.526;19.072;2024-03-06T14:36:19;9.95;;;5.50;;
62110;SDS011;48102;47.526;19.072;2024-03-06T14:39:23;8.50;;;5.70;;
62110;SDS011;48102;47.526;19.072;2024-03-06T14:42:28;8.02;;;4.80;;
62110;SDS011;48102;47.526;19.072;2024-03-06T14:45:30;9.00;;;5.53;;
62110;SDS011;48102;47.526;19.072;2024-03-06T14:48:34;6.75;;;5.30;;
62110;SDS011;48102;47.526;19.072;2024-03-06T14:51:37;8.68;;;4.53;;
62110;SDS011;48102;47.526;19.072;2024-03-06T14:57:46;7.62;;;5.22;;
62110;SDS011;48102;47.526;19.072;2024-03-06T15:09:59;12.63;;;7.63;;
62110;SDS011;48102;47.526;19.072;2024-03-06T15:13:02;11.32;;;7.25;;
62110;SDS011;48102;47.526;19.072;2024-03-06T15:16:05;14.15;;;7.97;;
62110;SDS011;48102;47.526;19.072;2024-03-06T15:19:08;10.43;;;7.95;;
62110;SDS011;48102;47.526;19.072;2024-03-06T15:22:11;13.18;;;8.43;;
62110;SDS011;48102;47.526;19.072;2024-03-06T15:28:16;10.65;;;8.40;;
62110;SDS011;48102;47.526;19.072;2024-03-06T15:31:20;11.88;;;7.82;;
62110;SDS011;48102;47.526;19.072;2024-03-06T15:34:22;11.85;;;7.78;;
62110;SDS011;48102;47.526;19.072;2024-03-06T15:40:28;14.02;;;8.73;;
62110;SDS011;48102;47.526;19.072;2024-03-06T15:43:33;10.02;;;5.93;;
62110;SDS011;48102;47.526;19.072;2024-03-06T15:46:36;8.60;;;6.45;;
62110;SDS011;48102;47.526;19.072;2024-03-06T15:49:39;8.65;;;6.28;;
62110;SDS011;48102;47.526;19.072;2024-03-06T15:52:42;6.95;;;5.65;;
62110;SDS011;48102;47.526;19.072;2024-03-06T15:55:46;9.40;;;6.87;;
62110;SDS011;48102;47.526;19.072;2024-03-06T15:58:48;12.23;;;8.10;;
62110;SDS011;48102;47.526;19.072;2024-03-06T16:04:54;9.25;;;7.57;;
62110;SDS011;48102;47.526;19.072;2024-03-06T16:07:59;15.98;;;8.68;;
62110;SDS011;48102;47.526;19.072;2024-03-06T16:11:07;11.73;;;8.18;;
62110;SDS011;48102;47.526;19.072;2024-03-06T16:14:10;12.07;;;8.85;;
62110;SDS011;48102;47.526;19.072;2024-03-06T16:17:13;11.15;;;7.37;;
62110;SDS011;48102;47.526;19.072;2024-03-06T16:20:16;9.75;;;5.28;;
62110;SDS011;48102;47.526;19.072;2024-03-06T16:23:19;7.57;;;3.80;;
62110;SDS011;48102;47.526;19.072;2024-03-06T16:26:22;5.65;;;3.55;;
62110;SDS011;48102;47.526;19.072;2024-03-06T16:29:30;8.05;;;4.78;;
62110;SDS011;48102;47.526;19.072;2024-03-06T16:32:33;10.88;;;6.82;;
62110;SDS011;48102;47.526;19.072;2024-03-06T16:38:38;11.20;;;7.20;;
62110;SDS011;48102;47.526;19.072;2024-03-06T16:41:42;12.73;;;8.20;;
62110;SDS011;48102;47.526;19.072;2024-03-06T16:47:48;9.07;;;5.25;;
62110;SDS011;48102;47.526;19.072;2024-03-06T16:54:39;4.03;;;3.30;;
